Time;durP1;ratioP1;P1;durP2;ratioP2;P2;SDS_P1;SDS_P2;PMS_P1;PMS_P2;Temp;Humidity;BMP_temperature;BMP_pressure;BME280_temperature;BME280_humidity;BME280_pressure;Samples;Min_cycle;Max_cycle;Signal;HPM_P1;HPM_P2
2023/03/12 00:00:48;;;;;;;9.63;5.15;;;;;;;2.07;100.00;97192.50;5070625;28;20044;-46
2023/03/12 00:03:15;;;;;;;8.95;4.90;;;;;;;2.12;100.00;97205.13;5070686;28;20040;-45
2023/03/12 00:05:42;;;;;;;9.57;5.28;;;;;;;2.18;100.00;97202.31;5070560;28;20037;-47
2023/03/12 00:08:08;;;;;;;10.57;5.05;;;;;;;2.19;100.00;97193.75;5070734;28;20151;-48
2023/03/12 00:10:34;;;;;;;11.25;5.40;;;;;;;2.19;100.00;97183.50;5051765;28;20126;-47
2023/03/12 00:13:00;;;;;;;10.50;5.88;;;;;;;2.23;100.00;97189.31;5070486;28;20151;-50
2023/03/12 00:15:26;;;;;;;11.20;5.63;;;;;;;2.28;100.00;97184.84;5070351;28;20386;-53
2023/03/12 00:17:52;;;;;;;11.75;5.60;;;;;;;2.26;100.00;97168.69;5057598;28;20085;-48
2023/03/12 00:20:19;;;;;;;9.07;5.03;;;;;;;2.28;100.00;97160.03;5084535;28;20044;-46
2023/03/12 00:22:45;;;;;;;14.45;7.28;;;;;;;2.36;100.00;97159.72;5066334;28;20044;-48
2023/03/12 00:25:13;;;;;;;10.45;5.93;;;;;;;2.07;100.00;97096.88;5083692;28;20044;-49
2023/03/12 00:27:39;;;;;;;9.05;5.28;;;;;;;2.41;100.00;97160.34;5068117;28;20398;-47
2023/03/12 00:30:06;;;;;;;7.45;4.80;;;;;;;2.40;100.00;97146.72;5068485;28;20044;-46
2023/03/12 00:32:33;;;;;;;12.23;5.03;;;;;;;2.47;100.00;97147.28;5050624;28;20052;-48
2023/03/12 00:34:59;;;;;;;7.88;4.95;;;;;;;2.51;100.00;97141.94;5069914;28;20548;-48
2023/03/12 00:37:25;;;;;;;6.70;3.75;;;;;;;2.48;100.00;97131.00;5068690;28;20068;-48
2023/03/12 00:39:51;;;;;;;7.15;4.38;;;;;;;2.55;100.00;97117.84;5083228;28;20132;-46
2023/03/12 00:42:17;;;;;;;8.55;4.82;;;;;;;2.62;100.00;97122.72;5050904;28;20052;-47
2023/03/12 00:44:44;;;;;;;7.32;4.22;;;;;;;2.62;100.00;97117.59;5068897;28;20511;-48
2023/03/12 00:47:10;;;;;;;8.40;4.47;;;;;;;2.62;100.00;97103.00;5031435;28;20453;-51
2023/03/12 00:49:36;;;;;;;7.68;3.70;;;;;;;2.69;100.00;97099.28;5062943;28;20036;-47
2023/03/12 00:52:03;;;;;;;7.45;4.75;;;;;;;2.75;100.00;97098.19;5053196;28;20055;-49
2023/03/12 00:54:29;;;;;;;7.90;4.45;;;;;;;2.76;100.00;97079.34;5059312;28;20036;-47
2023/03/12 00:56:54;;;;;;;5.22;3.17;;;;;;;2.79;100.00;97069.75;5067860;28;20419;-47
2023/03/12 00:59:21;;;;;;;7.03;4.18;;;;;;;2.81;100.00;97067.97;5084172;28;20560;-47
2023/03/12 01:01:47;;;;;;;6.32;3.78;;;;;;;2.80;100.00;97063.72;5051424;28;20044;-47
2023/03/12 01:04:13;;;;;;;7.03;3.58;;;;;;;2.70;100.00;97033.44;5068206;28;20036;-47
2023/03/12 01:06:39;;;;;;;6.82;3.42;;;;;;;2.92;100.00;97052.09;5084095;28;20037;-48
2023/03/12 01:09:06;;;;;;;6.95;4.03;;;;;;;2.75;100.00;97026.38;5068477;28;20044;-50
2023/03/12 01:11:33;;;;;;;7.53;3.72;;;;;;;2.95;100.00;97046.78;5051090;28;20064;-47
2023/03/12 01:13:59;;;;;;;6.05;3.67;;;;;;;2.98;100.00;97037.22;5068926;28;20118;-50
2023/03/12 01:16:29;;;;;;;9.10;4.78;;;;;;;3.02;100.00;97042.22;5084836;28;20044;-48
2023/03/12 01:18:57;;;;;;;10.35;4.88;;;;;;;3.06;100.00;97028.34;5067263;28;20040;-49
2023/03/12 01:21:23;;;;;;;7.18;4.68;;;;;;;3.13;100.00;97035.69;5057531;28;20048;-46
2023/03/12 01:23:49;;;;;;;5.90;3.95;;;;;;;3.18;100.00;97031.16;5051144;28;20051;-50
2023/03/12 01:26:15;;;;;;;8.48;4.28;;;;;;;3.15;100.00;97021.03;5066079;28;20040;-53
2023/03/12 01:28:41;;;;;;;7.30;4.45;;;;;;;3.21;100.00;97017.34;5081810;28;20058;-46
2023/03/12 01:31:12;;;;;;;9.77;5.25;;;;;;;3.22;100.00;97008.75;5085972;28;20040;-49
2023/03/12 01:33:38;;;;;;;10.18;4.13;;;;;;;3.25;100.00;97006.03;5067736;28;20068;-49
2023/03/12 01:36:05;;;;;;;12.50;5.75;;;;;;;3.24;100.00;97020.63;5083861;28;20071;-48
2023/03/12 01:38:31;;;;;;;11.93;5.75;;;;;;;3.26;100.00;97000.00;5066259;28;20473;-47
2023/03/12 01:40:57;;;;;;;12.93;5.93;;;;;;;3.11;100.00;96970.75;5071817;28;20044;-48
2023/03/12 01:43:34;;;;;;;14.00;6.03;;;;;;;3.35;100.00;96999.53;5079568;28;20052;-48
2023/03/12 01:46:23;;;;;;;16.27;6.20;;;;;;;3.36;100.00;96988.38;5064763;28;20044;-46
2023/03/12 01:48:57;;;;;;;16.02;5.80;;;;;;;3.38;100.00;96981.44;5067408;28;20071;-46
2023/03/12 01:51:31;;;;;;;16.63;6.10;;;;;;;3.41;100.00;96979.53;5050054;28;20193;-50
2023/03/12 01:53:59;;;;;;;19.02;6.20;;;;;;;3.41;100.00;96976.97;5070644;28;20049;-48
2023/03/12 01:56:27;;;;;;;46.85;9.75;;;;;;;3.46;100.00;96966.47;5082812;28;20083;-48
2023/03/12 01:58:55;;;;;;;20.00;8.45;;;;;;;3.50;100.00;96970.56;5066324;28;20459;-51
2023/03/12 02:01:23;;;;;;;28.27;9.07;;;;;;;3.50;100.00;96960.28;5066944;28;20033;-49
2023/03/12 02:03:51;;;;;;;29.25;8.73;;;;;;;3.53;100.00;96962.69;5049881;28;20036;-47
2023/03/12 02:06:21;;;;;;;25.23;9.73;;;;;;;3.56;100.00;96954.03;5066405;28;20133;-53
2023/03/12 02:08:47;;;;;;;24.70;9.20;;;;;;;3.41;100.00;96922.22;5049707;28;20044;-47
2023/03/12 02:11:13;;;;;;;31.63;10.90;;;;;;;3.57;100.00;96945.38;5049583;28;20119;-49
2023/03/12 02:13:40;;;;;;;33.97;8.35;;;;;;;3.59;100.00;96934.16;5047329;28;20040;-47
2023/03/12 02:16:06;;;;;;;23.90;8.85;;;;;;;3.48;100.00;96915.88;5090043;28;20028;-50
2023/03/12 02:18:33;;;;;;;27.70;10.63;;;;;;;3.65;100.00;96935.56;5052880;28;20165;-47
2023/03/12 02:21:21;;;;;;;27.50;10.68;;;;;;;3.72;100.00;96944.59;5069298;28;20127;-48
2023/03/12 02:24:07;;;;;;;33.42;10.32;;;;;;;3.74;100.00;96923.09;5067187;28;20045;-50
2023/03/12 02:26:35;;;;;;;24.10;9.77;;;;;;;3.79;100.00;96920.28;5033763;28;20043;-48
2023/03/12 02:29:02;;;;;;;29.45;10.90;;;;;;;3.78;100.00;96927.16;5070345;28;20040;-47
2023/03/12 02:31:34;;;;;;;27.02;9.13;;;;;;;3.80;100.00;96907.34;5083835;28;20555;-47
2023/03/12 02:34:00;;;;;;;28.95;9.85;;;;;;;3.83;100.00;96920.03;5053249;28;20044;-46
2023/03/12 02:36:26;;;;;;;30.30;9.77;;;;;;;3.84;100.00;96903.72;5071199;28;20082;-46
2023/03/12 02:38:54;;;;;;;36.30;11.70;;;;;;;3.59;100.00;96867.38;5072087;28;20605;-45
2023/03/12 02:41:27;;;;;;;27.23;10.38;;;;;;;3.87;100.00;96889.06;5068610;28;20045;-48
2023/03/12 02:44:07;;;;;;;39.13;12.23;;;;;;;3.91;100.00;96893.13;5071525;28;20134;-49
2023/03/12 02:46:38;;;;;;;27.23;10.20;;;;;;;3.94;100.00;96886.06;5067265;28;20049;-47
2023/03/12 02:49:04;;;;;;;33.78;11.15;;;;;;;3.95;100.00;96892.88;5069146;28;20508;-51
2023/03/12 02:51:30;;;;;;;28.20;11.25;;;;;;;3.97;100.00;96887.66;5070422;28;20040;-48
2023/03/12 02:53:56;;;;;;;32.50;12.30;;;;;;;3.97;100.00;96862.78;5070151;28;20036;-47
2023/03/12 02:56:25;;;;;;;31.23;11.27;;;;;;;4.02;100.00;96868.53;5071276;28;20101;-49
2023/03/12 02:58:52;;;;;;;30.25;9.38;;;;;;;4.04;100.00;96860.72;5050585;28;20059;-49
2023/03/12 03:01:19;;;;;;;31.02;10.15;;;;;;;4.07;100.00;96853.69;5050401;28;20445;-51
2023/03/12 03:03:46;;;;;;;23.83;10.13;;;;;;;4.07;100.00;96855.41;5067224;28;20044;-49
2023/03/12 03:06:13;;;;;;;24.38;10.05;;;;;;;4.08;100.00;96844.22;5062367;28;20055;-46
2023/03/12 03:08:39;;;;;;;27.45;9.80;;;;;;;4.10;100.00;96858.66;5069582;28;20072;-50
2023/03/12 03:11:05;;;;;;;28.80;11.02;;;;;;;4.11;100.00;96841.47;5069924;28;20512;-47
2023/03/12 03:13:32;;;;;;;27.13;9.85;;;;;;;4.14;100.00;96828.44;5070288;28;20102;-50
2023/03/12 03:16:00;;;;;;;29.83;10.80;;;;;;;4.17;100.00;96839.41;5036918;28;20054;-48
2023/03/12 03:18:27;;;;;;;24.10;10.53;;;;;;;4.20;100.00;96836.66;5053402;28;20032;-49
2023/03/12 03:21:02;;;;;;;14.73;6.55;;;;;;;4.21;100.00;96825.47;5049646;28;20048;-50
2023/03/12 03:23:31;;;;;;;19.17;9.15;;;;;;;4.23;100.00;96828.81;5085100;28;20089;-46
2023/03/12 03:25:58;;;;;;;14.57;7.25;;;;;;;4.21;100.00;96828.06;5076083;28;20041;-50
2023/03/12 03:28:25;;;;;;;18.92;8.82;;;;;;;4.16;100.00;96816.34;5066596;28;20033;-49
2023/03/12 03:30:53;;;;;;;27.90;10.30;;;;;;;4.24;100.00;96820.16;5063809;28;20079;-47
2023/03/12 03:33:20;;;;;;;22.52;9.75;;;;;;;4.01;100.00;96774.34;5066705;28;20051;-54
2023/03/12 03:35:47;;;;;;;21.90;10.00;;;;;;;4.26;100.00;96805.47;5069810;28;20044;-44
2023/03/12 03:38:13;;;;;;;16.42;8.10;;;;;;;4.26;100.00;96802.91;5085673;28;20043;-49
2023/03/12 03:40:39;;;;;;;22.15;9.73;;;;;;;4.25;100.00;96806.38;5082736;28;20040;-48
2023/03/12 03:43:05;;;;;;;25.60;10.70;;;;;;;4.25;100.00;96790.13;5053474;28;20508;-51
2023/03/12 03:45:31;;;;;;;28.75;10.65;;;;;;;4.29;100.00;96786.50;5064360;28;20037;-47
2023/03/12 03:47:58;;;;;;;20.75;9.18;;;;;;;4.31;100.00;96786.41;5069070;28;20483;-50
2023/03/12 03:50:24;;;;;;;30.23;11.50;;;;;;;4.29;100.00;96770.25;5069208;28;20525;-50
2023/03/12 03:52:50;;;;;;;28.55;11.90;;;;;;;4.14;100.00;96738.47;5036044;28;20409;-50
2023/03/12 03:55:17;;;;;;;28.80;11.40;;;;;;;4.32;100.00;96764.91;5051425;28;20041;-48
2023/03/12 03:57:43;;;;;;;20.88;9.77;;;;;;;4.14;100.00;96729.03;5052376;28;20033;-51
2023/03/12 04:00:12;;;;;;;31.80;12.07;;;;;;;4.32;100.00;96758.03;5068167;28;20059;-51
2023/03/12 04:02:41;;;;;;;26.33;11.63;;;;;;;4.38;100.00;96762.00;5051170;28;20284;-47
2023/03/12 04:05:10;;;;;;;24.83;10.73;;;;;;;4.37;100.00;96748.31;5065516;28;20123;-49
2023/03/12 04:07:37;;;;;;;29.58;13.48;;;;;;;4.41;100.00;96747.22;5095781;28;20109;-49
2023/03/12 04:10:04;;;;;;;32.53;11.30;;;;;;;4.45;100.00;96735.03;5054877;28;20040;-48
2023/03/12 04:12:30;;;;;;;34.33;11.15;;;;;;;4.32;100.00;96731.50;5050128;28;20143;-48
2023/03/12 04:14:56;;;;;;;31.42;13.07;;;;;;;4.46;100.00;96723.81;5068382;28;20044;-48
2023/03/12 04:17:22;;;;;;;26.90;10.90;;;;;;;4.50;100.00;96733.03;5068282;28;20039;-47
2023/03/12 04:19:48;;;;;;;17.77;8.07;;;;;;;4.51;100.00;96740.63;5069111;28;20543;-53
2023/03/12 04:22:14;;;;;;;33.55;12.55;;;;;;;4.53;100.00;96709.69;5068678;28;20075;-50
2023/03/12 04:24:39;;;;;;;30.50;11.93;;;;;;;4.58;100.00;96711.09;5068507;28;20126;-51
2023/03/12 04:27:06;;;;;;;37.40;13.20;;;;;;;4.58;100.00;96705.09;5051467;28;20048;-47
2023/03/12 04:29:33;;;;;;;34.30;13.30;;;;;;;4.61;100.00;96713.47;5056305;28;20534;-49
2023/03/12 04:31:59;;;;;;;25.13;9.68;;;;;;;4.64;100.00;96715.03;5072116;28;20054;-49
2023/03/12 04:34:25;;;;;;;30.58;12.57;;;;;;;4.35;100.00;96662.72;5051740;28;20036;-51
2023/03/12 04:36:53;;;;;;;28.83;11.13;;;;;;;4.61;100.00;96699.78;5091021;28;20054;-50
2023/03/12 04:39:19;;;;;;;30.05;12.10;;;;;;;4.57;100.00;96681.13;5049501;28;20592;-48
2023/03/12 04:41:46;;;;;;;33.58;13.13;;;;;;;4.64;100.00;96694.47;5053922;28;20191;-50
2023/03/12 04:44:14;;;;;;;31.33;11.68;;;;;;;4.65;100.00;96688.41;5086068;28;20079;-46
2023/03/12 04:46:41;;;;;;;28.58;11.73;;;;;;;4.66;100.00;96687.47;5070453;28;20144;-49
2023/03/12 04:49:10;;;;;;;25.25;10.55;;;;;;;4.66;100.00;96697.75;5064104;28;20052;-48
2023/03/12 04:51:37;;;;;;;28.67;11.68;;;;;;;4.60;100.00;96678.41;5067675;28;20550;-48
2023/03/12 04:54:04;;;;;;;23.67;9.95;;;;;;;4.66;100.00;96678.00;5043162;28;20045;-49
2023/03/12 04:56:30;;;;;;;25.98;10.75;;;;;;;4.69;100.00;96671.88;5067875;28;20041;-48
2023/03/12 04:58:57;;;;;;;25.90;10.38;;;;;;;4.60;100.00;96652.66;5084032;28;20065;-50
2023/03/12 05:01:30;;;;;;;27.17;10.82;;;;;;;4.75;100.00;96692.09;5067705;28;20064;-50
2023/03/12 05:03:56;;;;;;;24.00;11.02;;;;;;;4.74;100.00;96667.28;5051335;28;20063;-50
2023/03/12 05:06:24;;;;;;;31.25;10.63;;;;;;;4.50;100.00;96640.44;5068144;28;20040;-49
2023/03/12 05:08:50;;;;;;;20.25;9.60;;;;;;;4.79;100.00;96667.84;5051274;28;20491;-49
2023/03/12 05:11:18;;;;;;;29.35;11.90;;;;;;;4.81;100.00;96673.72;5067453;28;20044;-47
2023/03/12 05:13:44;;;;;;;28.77;10.52;;;;;;;4.84;100.00;96667.56;5066598;28;20284;-47
2023/03/12 05:16:10;;;;;;;35.38;12.63;;;;;;;4.87;100.00;96657.88;5051207;28;20113;-47
2023/03/12 05:18:37;;;;;;;29.83;12.02;;;;;;;4.89;100.00;96658.63;5050984;28;20424;-50
2023/03/12 05:21:09;;;;;;;31.55;13.45;;;;;;;4.91;100.00;96650.84;5067320;28;20039;-48
2023/03/12 05:23:35;;;;;;;31.77;12.95;;;;;;;4.79;100.00;96618.94;5050664;28;20428;-47
2023/03/12 05:26:01;;;;;;;25.88;10.75;;;;;;;4.99;100.00;96639.16;5049284;28;20045;-50
2023/03/12 05:28:28;;;;;;;30.75;12.63;;;;;;;5.01;100.00;96619.28;5066431;28;20040;-50
2023/03/12 05:30:58;;;;;;;27.40;12.50;;;;;;;5.07;100.00;96624.06;5050943;28;20036;-52
2023/03/12 05:33:25;;;;;;;28.23;11.75;;;;;;;5.09;100.00;96647.97;5083823;28;20041;-47
2023/03/12 05:35:51;;;;;;;23.83;10.38;;;;;;;5.02;100.00;96627.84;5049738;28;20401;-50
2023/03/12 05:38:18;;;;;;;27.17;11.30;;;;;;;5.05;100.00;96628.47;5066913;28;20044;-48
2023/03/12 05:40:55;;;;;;;25.00;10.38;;;;;;;5.06;100.00;96625.00;5033839;28;20561;-49
2023/03/12 05:43:22;;;;;;;18.13;7.93;;;;;;;5.06;100.00;96613.88;5066857;28;20036;-48
2023/03/12 05:45:48;;;;;;;25.48;11.02;;;;;;;4.94;100.00;96591.44;5074853;28;20037;-48
2023/03/12 05:48:14;;;;;;;26.33;11.00;;;;;;;5.07;100.00;96611.22;5065900;28;20102;-49
2023/03/12 05:50:40;;;;;;;24.30;9.80;;;;;;;5.11;100.00;96620.38;5067122;28;20170;-46
2023/03/12 05:53:07;;;;;;;26.13;11.88;;;;;;;4.92;100.00;96575.28;5057339;28;20052;-50
2023/03/12 05:55:35;;;;;;;23.40;9.90;;;;;;;4.87;100.00;96554.94;5049311;28;20039;-50
2023/03/12 05:58:02;;;;;;;22.85;10.50;;;;;;;5.20;100.00;96600.97;5081934;28;20571;-49
2023/03/12 06:00:29;;;;;;;25.73;11.70;;;;;;;5.24;100.00;96593.84;5067972;28;20043;-50
2023/03/12 06:02:56;;;;;;;25.55;11.18;;;;;;;5.26;100.00;96590.28;5080297;28;20071;-48
2023/03/12 06:05:22;;;;;;;24.88;10.05;;;;;;;5.32;100.00;96576.19;5065355;28;20096;-51
2023/03/12 06:07:48;;;;;;;19.33;8.02;;;;;;;5.26;100.00;96582.56;5065922;28;20079;-48
2023/03/12 06:10:15;;;;;;;26.83;10.55;;;;;;;5.41;100.00;96589.31;5082173;28;20047;-49
2023/03/12 06:12:41;;;;;;;24.27;10.23;;;;;;;5.45;100.00;96582.22;5066746;28;20062;-46
2023/03/12 06:15:07;;;;;;;26.60;9.20;;;;;;;5.35;100.00;96576.00;5066184;28;20076;-48
2023/03/12 06:17:34;;;;;;;23.70;10.48;;;;;;;5.37;100.00;96558.69;5017542;28;20036;-50
2023/03/12 06:19:59;;;;;;;29.77;11.88;;;;;;;5.56;100.00;96590.09;5046322;28;20043;-47
2023/03/12 06:22:25;;;;;;;20.52;8.45;;;;;;;5.58;100.00;96580.53;5053331;28;20037;-49
2023/03/12 06:24:52;;;;;;;23.63;8.13;;;;;;;5.60;100.00;96575.28;5050689;28;20085;-47
2023/03/12 06:27:18;;;;;;;21.95;9.18;;;;;;;5.49;100.00;96548.47;5065774;28;20515;-50
2023/03/12 06:29:46;;;;;;;32.47;11.98;;;;;;;5.55;100.00;96578.94;5062846;28;20048;-49
2023/03/12 06:32:12;;;;;;;27.23;9.90;;;;;;;5.69;100.00;96583.25;5068036;28;20037;-49
2023/03/12 06:34:38;;;;;;;25.10;10.07;;;;;;;5.74;100.00;96580.34;5064557;28;20036;-48
2023/03/12 06:37:04;;;;;;;26.15;10.88;;;;;;;5.71;100.00;96573.63;5067069;28;20037;-52
2023/03/12 06:39:30;;;;;;;25.25;10.55;;;;;;;5.54;100.00;96555.88;5061954;28;20090;-49
2023/03/12 06:41:56;;;;;;;15.85;7.25;;;;;;;5.73;100.00;96584.69;5049740;28;20131;-47
2023/03/12 06:44:23;;;;;;;26.48;11.15;;;;;;;5.54;100.00;96551.56;5049894;28;20582;-46
2023/03/12 06:46:48;;;;;;;24.45;9.32;;;;;;;5.74;100.00;96577.78;5066462;28;20047;-47
2023/03/12 06:49:14;;;;;;;36.17;11.77;;;;;;;5.77;100.00;96575.00;5067169;28;20040;-49
2023/03/12 06:51:40;;;;;;;24.38;10.25;;;;;;;5.74;100.00;96570.88;5067811;28;20131;-51
2023/03/12 06:54:06;;;;;;;29.90;11.10;;;;;;;5.50;100.00;96533.78;5066821;28;20518;-51
2023/03/12 06:56:32;;;;;;;30.10;11.18;;;;;;;5.44;100.00;96516.19;5078486;28;20248;-47
2023/03/12 06:58:58;;;;;;;33.05;13.40;;;;;;;5.54;100.00;96525.78;5072995;28;20140;-48
2023/03/12 07:01:24;;;;;;;31.92;12.68;;;;;;;5.79;100.00;96552.53;5061155;28;20116;-48
2023/03/12 07:03:50;;;;;;;38.03;13.40;;;;;;;5.80;100.00;96549.03;5064974;28;20045;-51
2023/03/12 07:06:19;;;;;;;39.22;13.68;;;;;;;5.70;100.00;96535.94;5059042;28;20055;-46
2023/03/12 07:08:45;;;;;;;39.60;14.20;;;;;;;5.82;100.00;96550.56;5070959;28;20190;-49
2023/03/12 07:11:11;;;;;;;37.35;13.88;;;;;;;5.80;100.00;96539.56;5052788;28;20539;-50
2023/03/12 07:13:37;;;;;;;43.47;14.20;;;;;;;5.87;100.00;96542.56;5069039;28;20047;-48
2023/03/12 07:16:03;;;;;;;37.30;13.10;;;;;;;5.87;100.00;96540.00;5057388;28;20359;-52
2023/03/12 07:18:29;;;;;;;37.78;13.00;;;;;;;5.68;100.00;96506.84;5058039;28;20185;-48
2023/03/12 07:20:55;;;;;;;29.70;13.10;;;;;;;5.76;100.00;96517.47;5070407;28;20126;-50
2023/03/12 07:23:21;;;;;;;39.78;13.60;;;;;;;5.89;100.00;96535.56;5070632;28;20058;-48
2023/03/12 07:25:47;;;;;;;31.48;13.07;;;;;;;5.89;100.00;96520.09;5067477;28;20231;-49
2023/03/12 07:28:13;;;;;;;39.75;15.18;;;;;;;5.90;100.00;96519.19;5064955;28;20068;-47
2023/03/12 07:30:40;;;;;;;35.53;12.70;;;;;;;5.93;100.00;96532.69;5051353;28;20584;-49
2023/03/12 07:33:09;;;;;;;46.45;16.15;;;;;;;5.95;100.00;96517.13;5068678;28;20125;-48
2023/03/12 07:35:37;;;;;;;48.72;15.98;;;;;;;6.00;100.00;96514.25;5050044;28;20048;-51
2023/03/12 07:38:03;;;;;;;38.03;14.02;;;;;;;6.00;100.00;96512.50;5070109;28;20172;-53
2023/03/12 07:40:28;;;;;;;42.28;14.95;;;;;;;6.00;100.00;96501.34;5070687;28;20535;-50
2023/03/12 07:42:55;;;;;;;41.33;15.00;;;;;;;6.00;100.00;96507.34;5069029;28;20041;-47
2023/03/12 07:45:21;;;;;;;38.30;13.52;;;;;;;5.99;100.00;96500.53;5069997;28;20041;-49
2023/03/12 07:47:47;;;;;;;43.03;14.90;;;;;;;6.02;100.00;96508.03;5070079;28;20519;-50
2023/03/12 07:50:14;;;;;;;40.17;15.65;;;;;;;5.90;100.00;96473.63;5051065;28;20040;-49
2023/03/12 07:52:40;;;;;;;36.10;13.10;;;;;;;6.08;100.00;96494.75;5035181;28;20043;-51
2023/03/12 07:55:07;;;;;;;41.85;14.85;;;;;;;6.10;100.00;96494.66;5069774;28;20126;-47
2023/03/12 07:57:33;;;;;;;39.58;14.25;;;;;;;6.09;100.00;96480.91;5068348;28;20036;-46
2023/03/12 07:59:59;;;;;;;36.75;13.48;;;;;;;6.13;100.00;96482.34;5069011;28;20455;-47
2023/03/12 08:02:24;;;;;;;31.83;12.07;;;;;;;6.17;100.00;96477.84;5068930;28;20496;-51
2023/03/12 08:04:50;;;;;;;36.28;12.57;;;;;;;6.16;100.00;96483.91;5034632;28;20040;-53
2023/03/12 08:07:16;;;;;;;44.05;14.25;;;;;;;6.20;100.00;96481.03;5068084;28;20055;-50
2023/03/12 08:09:42;;;;;;;35.63;13.98;;;;;;;6.09;100.00;96434.50;5069798;28;20538;-49
2023/03/12 08:12:08;;;;;;;36.17;13.80;;;;;;;6.25;100.00;96472.97;5069764;28;20091;-43
2023/03/12 08:14:35;;;;;;;35.70;13.30;;;;;;;6.26;100.00;96457.41;5068131;28;20040;-44
2023/03/12 08:17:01;;;;;;;28.73;11.65;;;;;;;6.23;100.00;96455.00;5070063;28;20149;-41
2023/03/12 08:19:27;;;;;;;32.22;11.68;;;;;;;6.24;100.00;96455.84;5087952;28;20040;-49
2023/03/12 08:21:53;;;;;;;35.85;12.80;;;;;;;6.28;100.00;96445.19;5090168;28;20062;-44
2023/03/12 08:24:20;;;;;;;31.88;12.23;;;;;;;6.31;100.00;96457.91;5080400;28;20037;-44
2023/03/12 08:26:46;;;;;;;25.10;9.75;;;;;;;6.14;100.00;96439.34;5069933;28;20051;-41
2023/03/12 08:29:13;;;;;;;30.17;11.55;;;;;;;6.24;100.00;96446.34;5069120;28;20044;-46
2023/03/12 08:31:39;;;;;;;24.13;10.13;;;;;;;6.26;100.00;96454.00;5055838;28;20044;-47
2023/03/12 08:34:05;;;;;;;22.90;10.00;;;;;;;6.24;100.00;96443.78;5046631;28;20040;-42
2023/03/12 08:36:31;;;;;;;20.35;7.35;;;;;;;6.26;100.00;96435.94;5065680;28;20051;-44
2023/03/12 08:38:57;;;;;;;20.90;9.13;;;;;;;6.25;100.00;96427.38;5068233;28;20041;-41
2023/03/12 08:41:23;;;;;;;21.45;9.50;;;;;;;6.30;100.00;96419.31;5067650;28;20048;-48
2023/03/12 08:43:49;;;;;;;31.63;11.05;;;;;;;6.33;100.00;96413.97;5069522;28;20040;-54
2023/03/12 08:46:16;;;;;;;25.75;9.82;;;;;;;6.41;100.00;96405.66;5070523;28;20036;-47
2023/03/12 08:48:41;;;;;;;23.92;9.75;;;;;;;6.42;100.00;96412.47;5083995;28;20377;-52
2023/03/12 08:51:07;;;;;;;27.85;9.48;;;;;;;6.27;100.00;96376.53;5083349;28;20052;-45
2023/03/12 08:53:35;;;;;;;24.33;8.57;;;;;;;6.45;100.00;96387.28;5051558;28;20585;-59
2023/03/12 08:56:05;;;;;;;29.10;10.68;;;;;;;6.48;100.00;96386.25;5069148;28;20076;-45
2023/03/12 08:58:30;;;;;;;26.48;10.52;;;;;;;6.50;100.00;96380.03;5067487;28;20131;-41
2023/03/12 09:00:57;;;;;;;29.63;10.25;;;;;;;6.52;100.00;96379.94;5067354;28;20867;-44
2023/03/12 09:03:23;;;;;;;21.88;8.45;;;;;;;6.56;100.00;96381.38;5068005;28;20141;-45
2023/03/12 09:05:50;;;;;;;21.52;9.18;;;;;;;6.39;100.00;96355.00;5082005;28;20372;-49
2023/03/12 09:08:17;;;;;;;20.73;7.82;;;;;;;6.57;100.00;96372.69;5077843;28;20039;-48
2023/03/12 09:10:49;;;;;;;31.85;11.07;;;;;;;6.60;100.00;96370.72;5068261;28;20064;-48
2023/03/12 09:13:15;;;;;;;25.77;9.48;;;;;;;6.43;100.00;96334.16;5050774;28;20056;-50
2023/03/12 09:15:41;;;;;;;24.40;9.82;;;;;;;6.48;100.00;96326.91;5068173;28;20455;-51
2023/03/12 09:18:07;;;;;;;21.17;9.38;;;;;;;6.66;100.00;96334.16;5068501;28;20052;-52
2023/03/12 09:20:32;;;;;;;28.83;11.13;;;;;;;6.73;100.00;96337.94;5069210;28;20159;-51
2023/03/12 09:22:58;;;;;;;28.20;10.55;;;;;;;6.79;100.00;96344.41;5068166;28;20044;-49
2023/03/12 09:25:24;;;;;;;22.05;8.90;;;;;;;6.78;100.00;96341.00;5067033;28;20052;-51
2023/03/12 09:27:50;;;;;;;26.55;9.93;;;;;;;6.64;100.00;96317.16;5066823;28;20516;-51
2023/03/12 09:30:19;;;;;;;31.52;10.77;;;;;;;6.77;100.00;96339.34;5068019;28;20040;-47
2023/03/12 09:32:45;;;;;;;24.27;8.65;;;;;;;6.76;100.00;96334.28;5050881;28;20039;-47
2023/03/12 09:35:16;;;;;;;37.70;11.88;;;;;;;6.79;100.00;96327.19;5068045;28;20055;-47
2023/03/12 09:37:42;;;;;;;21.02;8.15;;;;;;;6.61;100.00;96297.53;5068583;28;20043;-49
2023/03/12 09:40:14;;;;;;;27.15;10.43;;;;;;;6.85;100.00;96315.59;5067111;28;20052;-50
2023/03/12 09:42:50;;;;;;;19.63;9.48;;;;;;;6.81;100.00;96311.56;5067314;28;20045;-48
2023/03/12 09:45:22;;;;;;;18.65;8.45;;;;;;;6.83;100.00;96304.53;5065907;28;20067;-53
2023/03/12 09:47:52;;;;;;;23.55;9.27;;;;;;;6.75;100.00;96314.59;5077720;28;20068;-49
2023/03/12 09:50:42;;;;;;;22.50;8.13;;;;;;;6.70;100.00;96291.69;5059436;28;20045;-47
2023/03/12 09:53:20;;;;;;;20.92;9.48;;;;;;;6.74;100.00;96300.88;5068501;28;20056;-51
2023/03/12 09:55:48;;;;;;;21.17;9.00;;;;;;;6.67;100.00;96284.19;5060873;28;20051;-51
2023/03/12 09:58:35;;;;;;;22.38;9.10;;;;;;;6.71;100.00;96289.94;5047906;28;20076;-49
2023/03/12 10:01:41;;;;;;;25.10;9.82;;;;;;;6.64;100.00;96286.16;5057558;28;20048;-49
2023/03/12 10:04:35;;;;;;;14.32;6.05;;;;;;;6.62;100.00;96277.72;5068963;28;20040;-49
2023/03/12 10:07:20;;;;;;;21.23;9.60;;;;;;;6.64;100.00;96266.34;5063556;28;20564;-51
2023/03/12 10:10:23;;;;;;;20.52;8.68;;;;;;;6.68;100.00;96270.34;5063395;28;20106;-48
2023/03/12 10:13:18;;;;;;;24.23;9.20;;;;;;;6.54;100.00;96231.00;5074894;28;20519;-52
2023/03/12 10:16:06;;;;;;;17.95;7.90;;;;;;;6.60;100.00;96244.25;5066751;28;20041;-53
2023/03/12 10:18:50;;;;;;;20.50;8.80;;;;;;;6.58;100.00;96241.00;5068332;28;20043;-49
2023/03/12 10:21:32;;;;;;;18.27;8.57;;;;;;;6.58;100.00;96237.59;5066836;28;20047;-50
2023/03/12 10:24:24;;;;;;;19.13;9.13;;;;;;;6.54;100.00;96241.34;5064159;28;20101;-49
2023/03/12 10:26:51;;;;;;;20.55;8.75;;;;;;;6.50;100.00;96238.13;5066786;28;20106;-49
2023/03/12 10:29:27;;;;;;;16.77;7.70;;;;;;;6.49;100.00;96240.84;5033496;28;20037;-48
2023/03/12 10:32:01;;;;;;;20.35;9.32;;;;;;;6.45;100.00;96227.34;5049846;28;20412;-50
2023/03/12 10:34:36;;;;;;;23.05;8.23;;;;;;;6.50;100.00;96214.09;5050118;28;20044;-48
2023/03/12 10:37:21;;;;;;;14.57;7.72;;;;;;;6.53;100.00;96211.31;5068119;28;20117;-53
2023/03/12 10:39:47;;;;;;;18.38;7.85;;;;;;;6.53;100.00;96212.13;5065303;28;20048;-49
2023/03/12 10:42:21;;;;;;;22.58;8.63;;;;;;;6.48;100.00;96205.66;5069762;28;20043;-50
2023/03/12 10:44:51;;;;;;;16.48;7.45;;;;;;;6.31;100.00;96173.34;5069756;28;20134;-49
2023/03/12 10:47:33;;;;;;;;;;;;;;;6.62;100.00;96195.13;5071003;28;20044;-52
2023/03/12 10:50:10;;;;;;;11.75;5.95;;;;;;;6.65;100.00;96194.88;5103354;28;20410;-51
2023/03/12 10:52:36;;;;;;;15.68;6.25;;;;;;;6.61;100.00;96198.63;5070574;28;20827;-51
2023/03/12 10:55:19;;;;;;;11.82;5.93;;;;;;;6.59;100.00;96187.63;5069779;28;20043;-49
2023/03/12 10:57:46;;;;;;;15.13;7.22;;;;;;;6.55;100.00;96194.75;5070556;28;20469;-51
2023/03/12 11:00:18;;;;;;;12.55;6.82;;;;;;;6.59;100.00;96183.28;5070444;28;20072;-54
2023/03/12 11:02:44;;;;;;;13.75;6.68;;;;;;;6.43;100.00;96156.16;5069936;28;20040;-50
2023/03/12 11:05:25;;;;;;;12.85;6.45;;;;;;;6.49;100.00;96166.03;5071031;28;20050;-48
2023/03/12 11:07:51;;;;;;;12.38;7.30;;;;;;;6.61;100.00;96186.56;5049256;28;20039;-50
2023/03/12 11:10:36;;;;;;;11.68;6.93;;;;;;;6.48;100.00;96159.22;5050736;28;20127;-47
2023/03/12 11:13:05;;;;;;;9.63;5.78;;;;;;;6.59;100.00;96169.56;5053421;28;20056;-50
2023/03/12 11:15:42;;;;;;;11.63;6.55;;;;;;;6.63;100.00;96166.63;5069931;28;20127;-50
2023/03/12 11:18:19;;;;;;;11.10;6.53;;;;;;;6.62;100.00;96165.00;5069823;28;20093;-50
2023/03/12 11:20:45;;;;;;;10.95;6.43;;;;;;;6.69;100.00;96162.78;5069597;28;20059;-50
2023/03/12 11:23:30;;;;;;;11.20;6.30;;;;;;;6.73;100.00;96159.84;5070108;28;20453;-49
2023/03/12 11:26:00;;;;;;;12.18;6.20;;;;;;;6.74;100.00;96163.25;5070849;28;20075;-52
2023/03/12 11:29:00;;;;;;;10.45;6.20;;;;;;;6.75;100.00;96159.75;5086764;28;20072;-49